Time;durP1;ratioP1;P1;durP2;ratioP2;P2;SDS_P1;SDS_P2;PMS_P1;PMS_P2;Temp;Humidity;BMP_temperature;BMP_pressure;BME280_temperature;BME280_humidity;BME280_pressure;Samples;Min_cycle;Max_cycle;Signal;HPM_P1;HPM_P2
2023/04/30 00:02:20;;;;;;;12.63;8.43;;;13.20;99.90;;;13.41;nan;101045.91;4994544;28;20638;-67
2023/04/30 00:04:47;;;;;;;11.93;8.20;;;13.20;99.90;;;13.39;nan;101053.91;5005653;28;20641;-67
2023/04/30 00:07:14;;;;;;;14.97;9.93;;;13.20;99.90;;;13.36;nan;101043.66;5007897;28;20641;-68
2023/04/30 00:09:41;;;;;;;12.03;7.50;;;13.20;99.90;;;13.36;nan;101045.44;5006768;28;20645;-67
2023/04/30 00:12:08;;;;;;;11.37;8.00;;;13.10;99.90;;;13.37;nan;101047.09;4993565;28;20665;-67
2023/04/30 00:14:35;;;;;;;12.70;8.23;;;13.20;99.90;;;13.32;nan;101055.31;5002568;28;21145;-67
2023/04/30 00:17:02;;;;;;;15.40;9.20;;;13.10;99.90;;;13.33;nan;101051.72;5010671;28;20633;-67
2023/04/30 00:19:29;;;;;;;11.77;8.70;;;13.10;99.90;;;13.29;nan;101060.78;5000703;28;20631;-68
2023/04/30 00:21:56;;;;;;;17.97;9.87;;;13.00;99.90;;;13.33;nan;101058.78;4993254;28;20630;-65
2023/04/30 00:24:23;;;;;;;12.93;8.00;;;13.10;99.90;;;13.33;nan;101062.22;4998196;28;20638;-67
2023/04/30 00:26:50;;;;;;;13.93;8.97;;;13.10;99.90;;;13.32;nan;101063.19;4993486;28;20638;-66
2023/04/30 00:29:17;;;;;;;13.13;9.60;;;13.10;99.90;;;13.31;nan;101060.69;4992706;28;20681;-67
2023/04/30 00:31:44;;;;;;;13.80;10.30;;;13.10;99.90;;;13.28;nan;101064.38;5003788;28;20668;-67
2023/04/30 00:34:11;;;;;;;14.00;9.67;;;13.10;99.90;;;13.27;nan;101065.31;5011754;28;20635;-69
2023/04/30 00:36:39;;;;;;;15.00;8.70;;;13.10;99.90;;;13.27;nan;101057.44;5010416;28;20605;-68
2023/04/30 00:39:06;;;;;;;11.67;7.47;;;13.00;99.90;;;13.29;nan;101060.78;5004811;28;20662;-67
2023/04/30 00:41:35;;;;;;;14.43;9.60;;;13.10;99.90;;;13.28;nan;101059.13;4999337;28;21104;-67
2023/04/30 00:44:02;;;;;;;12.90;9.33;;;13.10;99.90;;;13.27;nan;101060.06;4995497;28;20653;-67
2023/04/30 00:46:29;;;;;;;13.10;8.00;;;13.10;99.90;;;13.25;nan;101056.72;5009952;28;20641;-67
2023/04/30 00:48:56;;;;;;;11.40;8.87;;;13.10;99.90;;;13.21;nan;101055.28;5002642;28;20681;-67
2023/04/30 00:51:23;;;;;;;12.80;9.23;;;13.10;99.90;;;13.21;nan;101047.44;5009319;28;20641;-66
2023/04/30 00:53:50;;;;;;;12.33;8.83;;;13.00;99.90;;;13.19;nan;101054.59;5003698;28;21004;-67
2023/04/30 00:56:17;;;;;;;13.17;8.73;;;13.00;99.90;;;13.19;nan;101062.44;4996301;28;20629;-69
2023/04/30 00:58:45;;;;;;;12.63;9.40;;;13.00;99.90;;;13.19;nan;101054.59;5003309;28;21319;-70
2023/04/30 01:01:12;;;;;;;11.00;8.10;;;13.00;99.90;;;13.18;nan;101063.41;5001611;28;20630;-67
2023/04/30 01:03:40;;;;;;;12.20;9.67;;;12.90;99.90;;;13.20;nan;101061.50;5009375;28;20630;-67
2023/04/30 01:06:07;;;;;;;13.27;8.97;;;13.00;99.90;;;13.19;nan;101052.81;5008435;28;21169;-67
2023/04/30 01:08:34;;;;;;;15.37;10.03;;;13.00;99.90;;;13.15;nan;101059.22;5010250;28;21088;-67
2023/04/30 01:11:34;;;;;;;14.00;9.53;;;12.90;99.90;;;13.18;nan;101063.41;5005796;28;20630;-67
2023/04/30 01:14:24;;;;;;;13.47;8.30;;;12.90;99.90;;;13.18;nan;101063.41;5004122;28;21205;-66
2023/04/30 01:17:07;;;;;;;12.90;9.17;;;13.00;99.90;;;13.18;nan;101066.03;5000580;28;20708;-67
2023/04/30 01:19:46;;;;;;;13.20;8.37;;;13.00;99.90;;;13.16;nan;101066.13;5009596;28;20643;-67
2023/04/30 01:22:25;;;;;;;12.17;8.47;;;13.00;99.90;;;13.17;nan;101067.81;5011168;28;20637;-67
2023/04/30 01:25:02;;;;;;;11.70;8.90;;;13.00;99.90;;;13.15;nan;101061.00;4992607;28;20610;-67
2023/04/30 01:28:15;;;;;;;13.70;9.40;;;13.00;99.90;;;13.16;nan;101054.84;4991277;28;20646;-68
2023/04/30 01:30:46;;;;;;;12.97;9.50;;;13.00;99.90;;;13.14;nan;101054.09;4991992;28;20648;-67
2023/04/30 01:33:13;;;;;;;12.37;9.60;;;13.00;99.90;;;13.12;nan;101056.81;4997195;28;21071;-67
2023/04/30 01:36:24;;;;;;;11.60;8.40;;;13.00;99.90;;;13.09;nan;101054.47;4995797;28;20681;-66
2023/04/30 01:39:40;;;;;;;12.83;7.43;;;12.90;99.90;;;13.11;nan;101056.94;5010431;28;20677;-67
2023/04/30 01:42:29;;;;;;;13.00;8.90;;;12.90;99.90;;;13.11;nan;101056.94;5011682;28;20625;-68
2023/04/30 01:45:34;;;;;;;13.20;9.53;;;12.90;99.90;;;13.12;nan;101058.59;5011126;28;20613;-69
2023/04/30 01:48:42;;;;;;;13.20;9.03;;;12.90;99.90;;;13.12;nan;101056.00;5008667;28;20673;-65
2023/04/30 01:51:28;;;;;;;13.30;8.53;;;12.90;99.90;;;13.08;nan;101054.56;4997744;28;21011;-68
2023/04/30 01:54:02;;;;;;;11.70;9.23;;;12.90;99.90;;;13.09;nan;101064.94;4998955;28;20640;-67
2023/04/30 01:56:40;;;;;;;12.60;9.03;;;12.90;99.90;;;13.07;nan;101060.75;5007995;28;20674;-67
2023/04/30 01:59:08;;;;;;;14.60;9.27;;;12.90;99.90;;;13.06;nan;101061.69;5007309;28;20726;-67
2023/04/30 02:01:36;;;;;;;14.67;10.00;;;12.80;99.90;;;13.04;nan;101063.56;5001857;28;21220;-67
2023/04/30 02:04:03;;;;;;;12.13;8.70;;;12.80;99.90;;;13.05;nan;101065.28;4992476;28;20635;-67
2023/04/30 02:06:30;;;;;;;12.43;9.77;;;12.80;99.90;;;13.03;nan;101056.66;4991758;28;20637;-67
2023/04/30 02:09:02;;;;;;;12.37;8.70;;;12.80;99.90;;;13.05;nan;101063.47;4998301;28;21081;-67
2023/04/30 02:11:29;;;;;;;15.17;8.97;;;12.80;99.90;;;13.05;nan;101067.91;4992631;28;20626;-68
2023/04/30 02:13:56;;;;;;;11.40;8.33;;;12.80;99.90;;;13.01;nan;101061.19;4997191;28;20748;-69
2023/04/30 02:16:23;;;;;;;10.93;8.43;;;12.80;99.90;;;13.01;nan;101061.19;5009616;28;20691;-67
2023/04/30 02:18:51;;;;;;;11.37;8.13;;;12.80;99.90;;;13.02;nan;101068.94;5003237;28;20664;-68
2023/04/30 02:21:18;;;;;;;14.83;9.17;;;12.80;99.90;;;13.01;nan;101069.88;5005789;28;20634;-67
2023/04/30 02:23:45;;;;;;;17.53;8.90;;;12.80;99.90;;;13.01;nan;101063.81;5010233;28;20645;-67
2023/04/30 02:26:12;;;;;;;11.43;9.40;;;12.80;99.90;;;13.01;nan;101074.28;5010761;28;20711;-68
2023/04/30 02:28:39;;;;;;;14.30;9.27;;;12.80;99.90;;;13.02;nan;101058.44;4998431;28;21297;-68
2023/04/30 02:31:06;;;;;;;13.20;9.50;;;12.80;99.90;;;12.99;nan;101058.66;5000344;28;21002;-68
2023/04/30 02:33:32;;;;;;;18.10;8.97;;;12.80;99.90;;;12.97;nan;101059.72;5006828;28;20774;-69
2023/04/30 02:36:00;;;;;;;11.80;8.60;;;12.80;99.90;;;12.94;nan;101052.97;5005279;28;20997;-69
2023/04/30 02:38:27;;;;;;;10.47;8.30;;;12.70;99.90;;;12.93;nan;101053.91;4997882;28;21244;-68
2023/04/30 02:40:54;;;;;;;13.70;9.20;;;12.70;99.90;;;12.97;nan;101054.50;4994124;28;20692;-68
2023/04/30 02:43:21;;;;;;;11.17;8.00;;;12.80;99.90;;;12.96;nan;101053.69;5004726;28;20633;-68
2023/04/30 02:45:48;;;;;;;12.87;9.30;;;12.80;99.90;;;12.97;nan;101059.72;5009860;28;21263;-68
2023/04/30 02:48:15;;;;;;;13.80;8.20;;;12.80;99.90;;;12.98;nan;101062.25;5030555;22;20707;-68
2023/04/30 02:50:42;;;;;;;15.23;9.70;;;12.80;99.90;;;12.96;nan;101055.44;5006868;28;20633;-69
2023/04/30 02:53:09;;;;;;;12.67;9.23;;;12.80;99.90;;;12.93;nan;101055.66;5002456;28;20720;-68
2023/04/30 02:55:36;;;;;;;12.90;9.50;;;12.80;99.90;;;12.91;nan;101060.19;5003929;28;20618;-68
2023/04/30 02:58:04;;;;;;;15.13;9.07;;;12.70;99.90;;;12.92;nan;101059.25;5002383;28;21314;-69
2023/04/30 03:00:31;;;;;;;14.03;8.67;;;12.80;99.90;;;12.91;nan;101061.03;5009021;28;20624;-68
2023/04/30 03:02:58;;;;;;;12.50;8.40;;;12.70;99.90;;;12.89;nan;101062.09;5001658;28;20626;-68
2023/04/30 03:05:25;;;;;;;12.90;9.03;;;12.70;99.90;;;12.87;nan;101058.75;5010835;28;20633;-68
2023/04/30 03:07:52;;;;;;;14.40;9.10;;;12.70;99.90;;;12.86;nan;101067.56;5009019;28;20657;-68
2023/04/30 03:10:19;;;;;;;16.83;8.60;;;12.70;99.90;;;12.86;nan;101068.38;5010697;28;20711;-68
2023/04/30 03:12:46;;;;;;;11.90;6.80;;;12.70;99.90;;;12.86;nan;101062.34;5006964;28;21263;-68
2023/04/30 03:15:13;;;;;;;10.00;7.50;;;12.70;99.90;;;12.84;nan;101065.06;5002256;28;20682;-68
2023/04/30 03:17:40;;;;;;;8.33;6.50;;;12.70;99.90;;;12.84;nan;101066.84;5009475;28;20630;-68
2023/04/30 03:20:10;;;;;;;11.17;7.10;;;12.70;99.90;;;12.82;nan;101066.94;5009734;28;20632;-68
2023/04/30 03:22:36;;;;;;;9.03;5.50;;;12.60;99.90;;;12.83;nan;101059.94;5010197;28;20668;-68
2023/04/30 03:25:04;;;;;;;9.33;6.33;;;12.60;99.90;;;12.81;nan;101056.59;5010210;28;20632;-68
2023/04/30 03:27:31;;;;;;;7.23;5.07;;;12.60;99.90;;;12.78;nan;101046.34;5009189;28;20638;-68
2023/04/30 03:29:58;;;;;;;5.03;4.07;;;12.60;99.90;;;12.80;nan;101052.31;5010562;28;20706;-68
2023/04/30 03:32:25;;;;;;;3.53;3.23;;;12.60;99.90;;;12.81;nan;101053.97;5010523;28;20718;-68
2023/04/30 03:34:52;;;;;;;9.13;4.13;;;12.60;99.90;;;12.80;nan;101063.59;5002561;28;20630;-69
2023/04/30 03:37:19;;;;;;;4.17;3.50;;;12.60;99.90;;;12.82;nan;101053.03;4996467;28;20618;-68
2023/04/30 03:39:46;;;;;;;5.10;3.93;;;12.60;99.90;;;12.77;nan;101053.38;5012365;28;21085;-68
2023/04/30 03:42:13;;;;;;;4.00;3.27;;;12.60;99.90;;;12.77;nan;101053.38;5005963;28;20633;-68
2023/04/30 03:44:40;;;;;;;4.33;3.50;;;12.60;99.90;;;12.78;nan;101054.19;5003015;28;20664;-69
2023/04/30 03:47:07;;;;;;;5.47;3.60;;;12.60;99.90;;;12.76;nan;101056.94;4995124;28;20645;-68
2023/04/30 03:49:34;;;;;;;5.13;3.23;;;12.60;99.90;;;12.76;nan;101056.09;5008987;28;20664;-68
2023/04/30 03:52:02;;;;;;;3.73;2.90;;;12.60;99.90;;;12.77;nan;101060.41;5012724;28;21204;-68
2023/04/30 03:54:29;;;;;;;4.07;3.60;;;12.60;99.90;;;12.74;nan;101053.59;5012565;28;21096;-68
2023/04/30 03:56:56;;;;;;;4.13;3.73;;;12.60;99.90;;;12.75;nan;101059.69;5013180;28;20695;-68
2023/04/30 03:59:23;;;;;;;5.77;4.07;;;12.60;99.90;;;12.72;nan;101050.25;4995111;28;20646;-68
2023/04/30 04:01:51;;;;;;;5.93;4.30;;;12.60;99.90;;;12.73;nan;101054.56;5007034;28;21154;-68
2023/04/30 04:04:17;;;;;;;6.13;4.20;;;12.60;99.90;;;12.71;nan;101059.06;5005270;28;20633;-68
2023/04/30 04:06:45;;;;;;;4.60;3.40;;;12.50;99.90;;;12.70;nan;101051.31;5013021;28;20637;-68
2023/04/30 04:09:12;;;;;;;7.17;4.60;;;12.50;99.90;;;12.72;nan;101059.88;5012718;28;20722;-68
2023/04/30 04:11:39;;;;;;;4.30;2.87;;;12.50;99.90;;;12.70;nan;101062.63;5012229;28;20644;-68
2023/04/30 04:14:06;;;;;;;3.27;1.97;;;12.50;99.90;;;12.71;nan;101058.25;5012824;28;20669;-66
2023/04/30 04:16:33;;;;;;;2.70;2.40;;;12.50;99.90;;;12.72;nan;101063.34;5004977;28;20644;-67
2023/04/30 04:19:00;;;;;;;3.23;2.90;;;12.60;99.90;;;12.71;nan;101066.94;5010220;28;20656;-67
2023/04/30 04:21:27;;;;;;;3.70;3.03;;;12.50;99.90;;;12.72;nan;101065.13;5012818;28;21262;-67
2023/04/30 04:23:54;;;;;;;5.37;3.57;;;12.50;99.90;;;12.73;nan;101066.81;5012913;28;20625;-68
2023/04/30 04:26:24;;;;;;;5.10;3.67;;;12.50;99.90;;;12.71;nan;101055.63;5013870;28;20694;-68
2023/04/30 04:28:51;;;;;;;5.10;3.50;;;12.50;99.90;;;12.69;nan;101065.38;5012263;28;20656;-68
2023/04/30 04:31:19;;;;;;;5.37;3.33;;;12.50;99.90;;;12.71;nan;101073.94;5012934;28;20647;-67
2023/04/30 04:33:46;;;;;;;3.90;3.00;;;12.50;99.90;;;12.71;nan;101069.56;5011633;28;21004;-68
2023/04/30 04:36:13;;;;;;;5.27;3.83;;;12.50;99.90;;;12.71;nan;101076.56;5010951;28;20682;-67
2023/04/30 04:38:40;;;;;;;3.47;2.93;;;12.50;99.90;;;12.73;nan;101074.66;5011166;28;20661;-68
2023/04/30 04:41:07;;;;;;;5.47;3.77;;;12.50;99.90;;;12.72;nan;101076.44;5013633;28;20621;-67
2023/04/30 04:43:35;;;;;;;4.70;3.37;;;12.50;99.90;;;12.73;nan;101082.53;5012183;28;20640;-67
2023/04/30 04:46:04;;;;;;;3.77;3.10;;;12.50;99.90;;;12.76;nan;101079.66;5012093;28;21245;-68
2023/04/30 04:48:31;;;;;;;8.17;3.97;;;12.50;99.90;;;12.75;nan;101073.63;5011168;28;20675;-67
2023/04/30 04:50:57;;;;;;;3.93;3.53;;;12.50;99.90;;;12.80;nan;101084.56;5011671;28;21032;-67
2023/04/30 04:53:24;;;;;;;3.90;3.07;;;12.60;99.90;;;12.80;nan;101076.69;5011989;28;20657;-67
2023/04/30 04:55:51;;;;;;;2.83;2.60;;;12.60;99.90;;;12.80;nan;101073.28;5010753;28;20641;-67
2023/04/30 04:58:18;;;;;;;4.63;2.93;;;12.60;99.90;;;12.81;nan;101080.16;5006610;28;20719;-70
2023/04/30 05:00:45;;;;;;;4.37;3.90;;;12.60;99.90;;;12.81;nan;101074.94;5010802;28;21010;-70
2023/04/30 05:03:13;;;;;;;4.43;2.97;;;12.60;99.90;;;12.82;nan;101077.41;5012234;28;20648;-71
2023/04/30 05:05:40;;;;;;;5.43;3.93;;;12.60;99.90;;;12.83;nan;101075.66;5011995;28;20612;-70
2023/04/30 05:08:07;;;;;;;4.93;3.93;;;12.60;99.90;;;12.85;nan;101079.00;5007230;28;20673;-70
2023/04/30 05:10:34;;;;;;;5.20;3.47;;;12.60;99.90;;;12.90;nan;101077.72;5010128;28;20629;-69
2023/04/30 05:13:01;;;;;;;3.03;2.53;;;12.70;99.90;;;12.94;nan;101081.78;5010955;28;20670;-69
2023/04/30 05:15:28;;;;;;;5.67;4.47;;;12.70;99.90;;;12.97;nan;101080.69;5011003;28;20652;-70
2023/04/30 05:17:55;;;;;;;5.43;3.63;;;12.80;99.90;;;12.98;nan;101082.38;5012532;28;20695;-69
2023/04/30 05:24:28;;;;;;;5.93;3.90;;;12.80;99.90;;;13.05;nan;101084.44;5008754;28;20628;-69
2023/04/30 05:26:55;;;;;;;6.13;3.90;;;12.90;99.90;;;13.07;nan;101086.97;5012560;28;20637;-70
2023/04/30 05:29:22;;;;;;;6.70;3.77;;;12.90;99.90;;;13.06;nan;101080.88;5012918;28;20742;-69
2023/04/30 05:31:49;;;;;;;5.90;4.30;;;12.90;99.90;;;13.05;nan;101091.47;5011303;28;20637;-67
2023/04/30 05:34:16;;;;;;;4.97;4.07;;;12.90;99.90;;;13.07;nan;101086.97;5012096;28;21240;-69
2023/04/30 05:36:44;;;;;;;7.97;4.53;;;12.90;99.90;;;13.11;nan;101094.47;5011392;28;20696;-69
2023/04/30 05:39:11;;;;;;;5.97;4.37;;;12.90;99.90;;;13.16;nan;101092.31;5010444;28;20657;-70
2023/04/30 05:41:38;;;;;;;5.70;4.00;;;13.00;99.90;;;13.19;nan;101091.25;5012016;28;20644;-67
2023/04/30 05:44:05;;;;;;;2.00;1.80;;;13.00;99.90;;;13.27;nan;101082.84;5011838;28;20637;-70
2023/04/30 05:46:32;;;;;;;3.77;3.17;;;13.10;99.90;;;13.38;nan;101088.06;5012523;28;20656;-70
2023/04/30 05:48:59;;;;;;;3.87;2.70;;;13.20;99.90;;;13.47;nan;101090.84;5004361;28;21064;-67
2023/04/30 05:51:26;;;;;;;4.83;3.67;;;13.20;99.90;;;13.60;nan;101088.13;5006528;28;20633;-67
2023/04/30 05:53:54;;;;;;;5.57;3.53;;;13.40;99.90;;;13.70;nan;101082.03;5010277;28;20692;-68
2023/04/30 05:56:21;;;;;;;3.37;3.07;;;13.50;99.90;;;13.82;nan;101088.94;5009561;28;20637;-68
2023/04/30 05:58:49;;;;;;;4.00;3.37;;;13.60;99.90;;;13.93;nan;101083.69;5009616;28;20727;-70
2023/04/30 06:01:18;;;;;;;5.07;4.03;;;13.70;99.90;;;14.09;nan;101087.72;5010537;28;21012;-69
2023/04/30 06:03:45;;;;;;;3.70;3.40;;;13.90;99.90;;;14.22;nan;101097.16;5008692;28;20687;-69
2023/04/30 06:06:12;;;;;;;3.73;3.10;;;14.00;99.90;;;14.38;nan;101099.38;5004746;28;20629;-69
2023/04/30 06:08:43;;;;;;;2.40;2.20;;;14.10;99.90;;;14.52;nan;101088.63;5010541;28;20665;-69
2023/04/30 06:11:12;;;;;;;4.07;3.27;;;14.20;99.90;;;14.63;nan;101088.56;5012007;28;20645;-70
2023/04/30 06:13:39;;;;;;;4.00;3.50;;;14.40;99.90;;;14.70;nan;101085.31;5007973;28;20661;-69
2023/04/30 06:16:07;;;;;;;4.00;3.50;;;14.50;99.90;;;14.80;nan;101093.28;5009882;28;20679;-69
2023/04/30 06:18:34;;;;;;;4.30;3.90;;;14.60;99.90;;;14.82;nan;101086.13;5010850;28;20657;-69
2023/04/30 06:21:01;;;;;;;4.07;3.60;;;14.60;99.90;;;14.90;nan;101096.84;5011370;28;20634;-69
2023/04/30 06:23:28;;;;;;;3.87;3.20;;;14.70;99.90;;;14.91;nan;101095.00;5010548;28;21244;-70
2023/04/30 06:25:55;;;;;;;3.53;3.10;;;14.70;99.90;;;14.97;nan;101087.47;5010507;28;20641;-69
2023/04/30 06:28:22;;;;;;;3.30;2.20;;;14.80;99.90;;;15.02;nan;101090.53;5010500;28;20649;-69
2023/04/30 06:30:49;;;;;;;4.50;4.00;;;14.80;99.90;;;15.03;nan;101086.97;5009188;28;21292;-70
2023/04/30 06:33:17;;;;;;;3.73;2.93;;;14.80;99.90;;;15.01;nan;101096.78;5010991;28;21004;-69
2023/04/30 06:35:44;;;;;;;3.23;2.93;;;14.80;99.90;;;15.03;nan;101088.75;5009331;28;20630;-69
2023/04/30 06:38:11;;;;;;;5.63;4.13;;;14.80;99.90;;;15.10;nan;101090.75;5009534;28;21031;-69
2023/04/30 06:40:38;;;;;;;3.87;3.40;;;14.90;99.90;;;15.26;nan;101093.78;5002655;28;20633;-69
2023/04/30 06:43:05;;;;;;;1.00;1.00;;;15.00;99.90;;;15.39;nan;101093.56;5002337;28;20643;-69
2023/04/30 06:45:32;;;;;;;2.67;2.47;;;15.10;99.90;;;15.69;nan;101096.25;5004193;28;20792;-69
2023/04/30 06:47:59;;;;;;;3.03;2.73;;;15.40;99.90;;;16.19;nan;101110.25;4997460;28;20710;-70
2023/04/30 06:50:26;;;;;;;2.37;2.17;;;15.80;99.90;;;16.35;nan;101110.59;4995990;28;20646;-70
2023/04/30 06:52:53;;;;;;;3.40;2.50;;;16.10;99.90;;;16.58;nan;101106.78;4995416;28;20637;-69
2023/04/30 06:55:20;;;;;;;1.70;1.60;;;16.30;99.90;;;16.57;nan;101113.00;5006995;28;20657;-69
2023/04/30 06:57:47;;;;;;;2.67;2.47;;;16.40;99.90;;;16.51;nan;101108.28;4994746;28;20637;-69
2023/04/30 07:00:14;;;;;;;4.07;3.17;;;16.30;99.90;;;16.53;nan;101119.53;5001530;28;20646;-69
2023/04/30 07:02:41;;;;;;;2.17;1.20;;;16.20;99.90;;;16.35;nan;101105.31;5008767;28;20633;-70
2023/04/30 07:05:10;;;;;;;4.60;3.63;;;16.10;99.90;;;16.21;nan;101097.78;5003913;28;20653;-70
2023/04/30 07:07:37;;;;;;;2.90;2.70;;;16.00;99.90;;;16.13;nan;101108.16;4985274;28;20704;-71
2023/04/30 07:10:05;;;;;;;2.20;0.93;;;16.00;99.90;;;16.02;nan;101101.22;5010420;28;20636;-70
2023/04/30 07:12:32;;;;;;;2.93;2.70;;;15.90;99.90;;;15.95;nan;101088.72;5011517;28;20638;-69
2023/04/30 07:14:59;;;;;;;2.90;2.70;;;15.80;99.90;;;16.01;nan;101101.34;5012242;28;20653;-67
2023/04/30 07:17:26;;;;;;;3.73;3.33;;;15.80;99.90;;;16.02;nan;101097.75;5011842;28;20634;-69
2023/04/30 07:19:53;;;;;;;3.30;3.00;;;15.80;99.90;;;16.13;nan;101098.47;5013732;28;21125;-69
2023/04/30 07:22:21;;;;;;;2.00;1.90;;;15.90;99.90;;;16.19;nan;101097.94;5011729;28;21009;-69
2023/04/30 07:24:48;;;;;;;1.77;1.67;;;16.00;99.90;;;16.31;nan;101102.13;5013265;28;20637;-69
2023/04/30 07:27:15;;;;;;;2.40;1.80;;;16.10;99.90;;;16.40;nan;101100.47;5012805;28;20700;-68
2023/04/30 07:29:42;;;;;;;2.50;2.30;;;16.10;99.90;;;16.55;nan;101100.94;5014194;28;20718;-68
2023/04/30 07:32:09;;;;;;;3.50;3.20;;;16.30;99.90;;;16.64;nan;101098.31;5014041;28;20616;-68
2023/04/30 07:34:36;;;;;;;3.10;2.80;;;16.40;99.90;;;16.75;nan;101102.63;5013624;28;20703;-68
2023/04/30 07:37:02;;;;;;;2.33;2.13;;;16.50;99.90;;;16.96;nan;101112.06;5012816;28;20715;-68
2023/04/30 07:39:30;;;;;;;2.07;1.97;;;16.70;99.90;;;17.08;nan;101098.72;5012035;28;20657;-69
2023/04/30 07:41:57;;;;;;;2.50;2.30;;;16.80;99.90;;;17.36;nan;101103.09;5010640;28;21030;-67
2023/04/30 07:44:23;;;;;;;0.70;0.70;;;17.00;99.90;;;17.50;nan;101110.63;5014021;28;20637;-69
2023/04/30 07:46:51;;;;;;;1.00;0.90;;;17.20;99.90;;;17.92;nan;101093.38;5012325;28;20633;-65
2023/04/30 07:49:18;;;;;;;2.27;2.10;;;17.60;99.90;;;18.49;nan;101089.59;5012757;28;20738;-69
2023/04/30 07:51:45;;;;;;;1.30;1.30;;;18.10;99.90;;;19.45;nan;101100.16;5013839;28;20649;-67
2023/04/30 07:54:13;;;;;;;1.90;1.80;;;19.00;99.90;;;20.61;nan;101092.38;5012218;28;20672;-68
2023/04/30 07:56:40;;;;;;;0.60;0.60;;;20.30;99.90;;;21.45;nan;101098.16;5012878;28;20613;-68
2023/04/30 07:59:07;;;;;;;0.90;0.80;;;21.20;98.70;;;20.88;nan;101098.19;5006619;28;20670;-68
2023/04/30 08:01:34;;;;;;;2.43;2.23;;;21.00;97.30;;;21.52;nan;101112.44;5013158;28;21210;-68
2023/04/30 08:04:02;;;;;;;2.10;2.00;;;21.30;97.60;;;22.06;nan;101100.97;5010974;28;20636;-68
2023/04/30 08:06:29;;;;;;;3.07;2.73;;;21.90;95.30;;;23.11;nan;101101.13;5012323;28;20634;-68
2023/04/30 08:08:56;;;;;;;1.20;1.20;;;22.90;94.00;;;23.52;nan;101101.59;5013190;28;20670;-68
2023/04/30 08:11:23;;;;;;;2.40;2.20;;;23.50;90.10;;;24.77;nan;101109.34;5009521;28;20633;-68
2023/04/30 08:13:50;;;;;;;2.00;1.90;;;24.70;86.00;;;25.57;nan;101107.16;5009728;28;20672;-68
2023/04/30 08:16:17;;;;;;;2.70;2.50;;;25.80;79.40;;;26.71;nan;101101.03;5013517;28;20713;-68
2023/04/30 08:18:45;;;;;;;3.00;2.80;;;26.80;75.40;;;27.23;nan;101093.06;5012013;28;20657;-68
2023/04/30 08:21:13;;;;;;;2.00;1.90;;;27.50;71.10;;;27.73;nan;101104.13;5013297;28;20640;-68
2023/04/30 08:23:40;;;;;;;1.77;1.67;;;28.10;68.30;;;28.16;nan;101094.50;5013044;28;20699;-67
2023/04/30 08:26:07;;;;;;;1.43;1.43;;;28.70;63.70;;;29.30;nan;101089.81;5012215;28;20633;-70
2023/04/30 08:28:34;;;;;;;2.00;1.50;;;29.60;61.50;;;28.78;nan;101101.78;5011791;28;20657;-68
2023/04/30 08:31:01;;;;;;;5.47;3.17;;;29.90;58.00;;;28.76;nan;101099.34;5012746;28;20637;-67
2023/04/30 08:33:28;;;;;;;2.00;1.90;;;29.30;58.10;;;28.56;nan;101095.91;5011612;28;21007;-67
2023/04/30 08:35:55;;;;;;;1.67;1.57;;;29.10;58.00;;;25.89;nan;101093.16;5013283;28;20637;-68
2023/04/30 08:38:22;;;;;;;2.70;2.20;;;27.20;58.60;;;25.84;nan;101087.56;5012575;28;20657;-67
2023/04/30 08:41:05;;;;;;;2.23;2.13;;;26.20;61.90;;;27.56;nan;101091.16;5011778;28;20635;-66
2023/04/30 08:43:34;;;;;;;1.80;1.70;;;27.40;60.90;;;29.18;nan;101091.59;5010299;28;20629;-65
2023/04/30 08:46:02;;;;;;;1.77;1.67;;;29.10;57.40;;;30.38;nan;101086.31;5000745;28;20644;-69
2023/04/30 08:48:30;;;;;;;2.00;1.90;;;30.50;54.90;;;31.95;nan;101089.84;5042075;22;20677;-63
2023/04/30 08:51:02;;;;;;;1.73;1.63;;;32.00;53.70;;;32.10;nan;101090.16;5003673;28;21027;-67
2023/04/30 08:53:30;;;;;;;1.93;1.83;;;32.40;52.40;;;30.89;nan;101088.47;5010400;28;20645;-66
2023/04/30 08:55:58;;;;;;;1.70;1.63;;;31.50;52.40;;;28.94;nan;101095.91;5004351;28;20625;-67
2023/04/30 08:58:24;;;;;;;2.10;1.90;;;29.60;53.10;;;27.07;nan;101080.06;5002717;28;20633;-65
2023/04/30 09:00:51;;;;;;;2.17;2.03;;;27.90;54.20;;;25.42;nan;101085.06;5005698;28;20671;-66
2023/04/30 09:03:20;;;;;;;1.33;1.33;;;26.10;55.70;;;24.31;nan;101081.34;4996892;28;21025;-68
2023/04/30 09:05:47;;;;;;;2.40;2.20;;;24.80;58.60;;;23.27;nan;101081.53;5001987;28;20633;-67
2023/04/30 09:08:38;;;;;;;2.03;1.93;;;23.60;60.40;;;22.94;nan;101070.34;5005438;28;21270;-64
2023/04/30 09:11:29;;;;;;;2.00;1.90;;;23.00;62.60;;;22.74;nan;101079.84;5011705;28;20680;-67
2023/04/30 09:14:00;;;;;;;1.70;1.60;;;22.80;63.50;;;22.16;nan;101074.19;5011787;28;20747;-65
2023/04/30 09:16:32;;;;;;;1.40;1.27;;;22.30;65.10;;;21.91;nan;101072.66;5011301;28;20715;-67
2023/04/30 09:18:59;;;;;;;2.10;1.90;;;21.90;65.60;;;22.11;nan;101065.91;5002642;28;20658;-67
2023/04/30 09:21:35;;;;;;;1.67;1.57;;;21.90;66.20;;;22.21;nan;101058.56;5005087;28;20640;-65
2023/04/30 09:24:04;;;;;;;1.70;1.60;;;22.00;65.00;;;22.48;nan;101060.72;5011815;28;21001;-65
2023/04/30 09:26:33;;;;;;;1.00;1.00;;;22.20;65.70;;;;;;5010691;28;20625;-67
2023/04/30 09:29:06;;;;;;;2.37;1.80;;;22.90;64.10;;;23.68;nan;101068.66;5011961;28;21065;-69
2023/04/30 09:31:39;;;;;;;2.13;2.03;;;23.50;63.30;;;23.37;nan;101063.47;5011426;28;20647;-68
2023/04/30 09:34:06;;;;;;;2.10;2.00;;;23.30;63.00;;;22.89;nan;101067.38;5010328;28;20673;-64
2023/04/30 09:36:33;;;;;;;2.30;2.20;;;22.80;64.30;;;22.58;nan;101061.28;5011640;28;20648;-66
2023/04/30 09:39:12;;;;;;;1.77;1.70;;;22.50;65.30;;;22.43;nan;101065.72;4998379;28;20666;-67
2023/04/30 09:41:41;;;;;;;1.40;1.30;;;22.20;66.00;;;22.30;nan;101071.63;5004318;28;20638;-66
2023/04/30 09:44:30;;;;;;;1.70;1.60;;;22.30;64.80;;;22.02;nan;101061.66;5006704;28;20642;-66
2023/04/30 09:46:58;;;;;;;1.90;1.90;;;21.90;63.40;;;21.71;nan;101050.13;5001108;28;20637;-66
2023/04/30 09:49:26;;;;;;;1.20;1.10;;;21.50;65.40;;;21.12;nan;101072.69;5010041;28;20675;-67
2023/04/30 09:52:03;;;;;;;0.60;0.60;;;21.10;64.50;;;20.76;nan;101062.38;5008877;28;20643;-67
2023/04/30 09:54:31;;;;;;;1.20;1.00;;;20.70;64.50;;;20.55;nan;101064.69;5009761;28;20730;-66
2023/04/30 09:57:01;;;;;;;1.30;1.30;;;20.40;65.70;;;20.66;nan;101069.66;5005531;28;20633;-66
2023/04/30 09:59:38;;;;;;;0.67;0.67;;;20.40;66.60;;;20.48;nan;101065.50;5000476;28;20666;-67
2023/04/30 10:02:07;;;;;;;0.87;0.87;;;20.30;66.00;;;20.34;nan;101061.66;5002066;28;20636;-66
2023/04/30 10:04:41;;;;;;;0.83;0.83;;;20.10;67.40;;;20.10;nan;101053.63;5004019;28;20679;-66
2023/04/30 10:07:21;;;;;;;0.93;0.73;;;19.90;67.30;;;19.97;nan;101051.44;5006543;28;20635;-66
2023/04/30 10:09:57;;;;;;;1.40;1.30;;;19.80;67.70;;;19.91;nan;101046.78;5009890;28;20661;-66
2023/04/30 10:12:35;;;;;;;1.23;1.13;;;19.70;69.20;;;20.18;nan;101063.41;5011569;28;20610;-66
2023/04/30 10:15:38;;;;;;;1.30;1.30;;;19.80;68.60;;;20.36;nan;101054.38;5010298;28;20711;-68
2023/04/30 10:18:17;;;;;;;1.03;1.03;;;20.00;68.20;;;20.46;nan;101046.28;5000210;28;20652;-68
2023/04/30 10:20:47;;;;;;;0.70;0.70;;;20.10;69.50;;;20.48;nan;101054.91;5006996;28;20649;-68
2023/04/30 10:23:15;;;;;;;1.00;1.00;;;20.10;69.30;;;20.46;nan;101041.81;5003516;28;20625;-65
2023/04/30 10:25:43;;;;;;;1.50;1.40;;;20.10;69.80;;;20.68;nan;101043.81;5008462;28;20706;-68
2023/04/30 10:28:11;;;;;;;1.47;1.47;;;20.30;69.20;;;20.67;nan;101041.34;5000634;28;20633;-67
2023/04/30 10:30:41;;;;;;;0.70;0.70;;;20.30;68.90;;;20.76;nan;101043.00;5004163;28;20691;-68
2023/04/30 10:33:14;;;;;;;0.80;0.80;;;20.40;67.40;;;20.79;nan;101040.00;5010898;28;20613;-66
2023/04/30 10:35:50;;;;;;;0.50;0.50;;;20.40;67.50;;;20.38;nan;101044.44;5009504;28;21251;-68
2023/04/30 10:38:26;;;;;;;0.43;0.43;;;20.30;67.00;;;20.02;nan;101040.34;5003374;28;21322;-65
2023/04/30 10:41:00;;;;;;;0.60;0.60;;;19.90;67.00;;;19.64;nan;101036.41;5006918;28;20626;-68